createdAt,value
2018-09-10T00:08:09.556Z,63.30
2018-09-10T00:18:12.798Z,64.20
2018-09-10T00:28:16.040Z,63.80
2018-09-10T00:38:19.595Z,63.70
2018-09-10T00:48:22.824Z,63.90
2018-09-10T00:58:26.069Z,64.30
2018-09-10T01:08:29.340Z,64.30
2018-09-10T01:18:33.540Z,65.10
2018-09-10T01:28:36.771Z,65.40
2018-09-10T01:38:40.020Z,66.00
2018-09-10T01:48:43.492Z,65.50
2018-09-10T01:58:46.728Z,66.60
2018-09-10T02:08:49.984Z,66.90
2018-09-10T02:18:53.221Z,66.90
2018-09-10T02:28:57.492Z,66.20
2018-09-10T02:39:00.724Z,66.30
2018-09-10T02:49:03.973Z,66.50
2018-09-10T02:59:07.204Z,66.10
2018-09-10T03:09:10.792Z,66.80
2018-09-10T03:19:14.042Z,66.30
2018-09-10T03:29:17.275Z,67.50
2018-09-10T03:39:20.520Z,67.70
2018-09-10T03:49:23.762Z,67.70
2018-09-10T03:59:27.005Z,67.30
2018-09-10T04:09:30.274Z,68.70
2018-09-10T04:19:33.533Z,67.70
2018-09-10T04:29:36.775Z,68.40
2018-09-10T04:39:40.021Z,68.10
2018-09-10T04:49:43.360Z,68.30
2018-09-10T04:59:46.524Z,68.60
2018-09-10T05:09:49.825Z,68.70
2018-09-10T05:19:53.028Z,68.00
2018-09-10T05:29:56.260Z,67.70
2018-09-10T05:39:59.504Z,67.80
2018-09-10T05:50:02.780Z,67.90
2018-09-10T06:00:07.516Z,67.20
2018-09-10T06:10:10.986Z,66.70
2018-09-10T06:20:14.875Z,66.90
2018-09-10T06:30:18.269Z,66.20
2018-09-10T06:40:22.282Z,66.00
2018-09-10T06:50:25.772Z,67.20
2018-09-10T07:00:29.142Z,65.80
2018-09-10T07:10:32.480Z,65.80
2018-09-10T07:20:35.928Z,65.20
2018-09-10T07:30:39.459Z,64.40
2018-09-10T07:40:42.760Z,62.80
2018-09-10T07:50:46.120Z,61.30
2018-09-10T08:00:49.735Z,60.30
2018-09-10T08:10:53.073Z,59.50
2018-09-10T08:20:56.322Z,58.70
2018-09-10T08:30:59.560Z,57.70
2018-09-10T08:41:02.920Z,56.60
2018-09-10T08:51:06.344Z,56.10
2018-09-10T09:01:09.582Z,56.40
2018-09-10T09:11:12.850Z,56.10
2018-09-10T09:21:16.179Z,55.70
2018-09-10T09:31:19.409Z,54.80
2018-09-10T09:41:28.087Z,53.80
2018-09-10T09:51:31.329Z,52.80
2018-09-10T10:01:40.615Z,51.60
2018-09-10T10:11:44.020Z,49.80
2018-09-10T10:21:47.167Z,48.30
2018-09-10T10:31:51.415Z,46.60
2018-09-10T10:41:55.069Z,41.80
2018-09-10T10:51:58.401Z,39.70
2018-09-10T11:02:01.663Z,37.70
2018-09-10T11:12:04.928Z,38.50
2018-09-10T11:22:08.492Z,37.30
2018-09-10T11:32:11.748Z,34.10
2018-09-10T11:42:15.920Z,35.60
2018-09-10T11:52:19.528Z,36.20
2018-09-10T12:02:22.950Z,36.50
2018-09-10T12:12:26.444Z,34.20
2018-09-10T12:22:29.922Z,33.70
2018-09-10T12:32:33.356Z,35.60
2018-09-10T12:42:36.645Z,34.30
2018-09-10T12:52:39.960Z,34.80
2018-09-10T13:02:43.320Z,34.60
2018-09-10T13:12:46.640Z,35.60
2018-09-10T13:22:50.121Z,34.90
2018-09-10T13:32:53.472Z,34.10
2018-09-10T13:42:56.736Z,34.20
2018-09-10T13:52:59.967Z,33.20
2018-09-10T14:03:03.204Z,33.30
2018-09-10T14:13:06.604Z,32.90
2018-09-10T14:23:09.832Z,33.10
2018-09-10T14:33:13.079Z,33.00
2018-09-10T14:43:16.321Z,31.60
2018-09-10T14:53:20.527Z,30.90
2018-09-10T15:03:24.060Z,31.10
2018-09-10T15:13:28.190Z,31.80
2018-09-10T15:23:32.632Z,32.50
2018-09-10T15:33:35.974Z,33.20
2018-09-10T15:43:39.275Z,33.90
2018-09-10T15:53:42.661Z,33.90
2018-09-10T16:03:46.003Z,33.90
2018-09-10T16:13:49.291Z,34.00
2018-09-10T16:23:52.665Z,38.80
2018-09-10T16:33:56.050Z,35.60
2018-09-10T16:43:59.347Z,35.60
2018-09-10T16:54:02.735Z,36.30
2018-09-10T17:04:06.032Z,37.10
2018-09-10T17:14:09.387Z,38.80
2018-09-10T17:24:12.713Z,39.00
2018-09-10T17:34:16.069Z,38.10
2018-09-10T17:44:19.700Z,38.10
2018-09-10T17:54:23.100Z,38.90
2018-09-10T18:04:26.385Z,40.30
2018-09-10T18:14:29.772Z,41.10
2018-09-10T18:24:33.108Z,41.30
2018-09-10T18:34:36.527Z,40.90
2018-09-10T18:44:39.843Z,41.30
2018-09-10T18:54:43.179Z,42.10
2018-09-10T19:04:46.593Z,41.60
2018-09-10T19:14:50.156Z,44.70
2018-09-10T19:24:53.405Z,45.20
2018-09-10T19:34:57.832Z,46.00
2018-09-10T19:45:01.116Z,46.30
2018-09-10T19:55:04.453Z,46.70
2018-09-10T20:05:07.844Z,47.80
2018-09-10T20:15:11.393Z,49.10
2018-09-10T20:25:14.822Z,49.30
2018-09-10T20:35:18.124Z,49.10
2018-09-10T20:45:21.554Z,49.60
2018-09-10T20:55:24.839Z,49.90
2018-09-10T21:05:28.186Z,50.40
2018-09-10T21:15:31.502Z,51.00
2018-09-10T21:25:35.544Z,51.60
2018-09-10T21:35:38.935Z,52.00
2018-09-10T21:45:43.084Z,52.50
2018-09-10T21:55:46.460Z,55.40
2018-09-10T22:05:49.789Z,56.10
2018-09-10T22:15:53.193Z,56.80
2018-09-10T22:25:56.829Z,56.20
2018-09-10T22:36:00.120Z,55.30
2018-09-10T22:46:03.466Z,55.00
2018-09-10T22:56:06.820Z,57.10
2018-09-10T23:06:10.169Z,57.70
2018-09-10T23:16:13.423Z,57.80
2018-09-10T23:26:16.833Z,57.80
2018-09-10T23:36:20.110Z,58.40
2018-09-10T23:46:23.344Z,58.70
2018-09-10T23:56:26.612Z,58.50
